Time;durP1;ratioP1;P1;durP2;ratioP2;P2;SDS_P1;SDS_P2;PMS_P1;PMS_P2;Temp;Humidity;BMP_temperature;BMP_pressure;BME280_temperature;BME280_humidity;BME280_pressure;Samples;Min_cycle;Max_cycle;Signal;HPM_P1;HPM_P2
2023/12/21 00:00:54;;;;;;;3.70;1.63;;;8.20;99.90;;;;;;4953526;28;20023;-82
2023/12/21 00:03:20;;;;;;;3.25;1.40;;;8.20;99.90;;;;;;4971098;28;20030;-82
2023/12/21 00:05:45;;;;;;;6.03;1.10;;;8.10;99.90;;;;;;4969293;28;20027;-83
2023/12/21 00:08:11;;;;;;;5.05;1.23;;;8.20;99.90;;;;;;4953764;28;20039;-82
2023/12/21 00:10:36;;;;;;;3.13;1.02;;;8.20;99.90;;;;;;4968894;28;20178;-83
2023/12/21 00:13:02;;;;;;;6.50;1.30;;;8.20;99.90;;;;;;4970177;28;20027;-82
2023/12/21 00:15:27;;;;;;;2.00;1.20;;;8.20;99.90;;;;;;4971126;28;20037;-83
2023/12/21 00:17:53;;;;;;;2.08;1.02;;;8.20;99.90;;;;;;4958205;28;20022;-82
2023/12/21 00:20:20;;;;;;;6.90;1.10;;;8.10;99.90;;;;;;4970871;28;20019;-82
2023/12/21 00:22:46;;;;;;;6.75;0.95;;;8.10;99.90;;;;;;4953438;28;20038;-82
2023/12/21 00:25:12;;;;;;;3.33;1.27;;;8.20;99.90;;;;;;4952824;28;20605;-82
2023/12/21 00:27:37;;;;;;;2.28;0.93;;;8.20;99.90;;;;;;4970914;28;20031;-83
2023/12/21 00:30:03;;;;;;;3.88;1.23;;;8.10;99.90;;;;;;4970898;28;20073;-82
2023/12/21 00:32:29;;;;;;;5.53;1.17;;;8.10;99.90;;;;;;4967330;28;20377;-83
2023/12/21 00:34:54;;;;;;;5.15;1.20;;;8.10;99.90;;;;;;4968999;28;20022;-82
2023/12/21 00:37:21;;;;;;;2.42;1.10;;;8.10;99.90;;;;;;4958554;28;20058;-82
2023/12/21 00:39:46;;;;;;;3.75;0.85;;;8.10;99.90;;;;;;4969880;28;20026;-82
2023/12/21 00:42:12;;;;;;;1.10;0.88;;;8.20;99.90;;;;;;4970259;28;20436;-83
2023/12/21 00:44:38;;;;;;;5.00;1.48;;;8.20;99.90;;;;;;4970464;28;20487;-83
2023/12/21 00:47:03;;;;;;;3.80;1.20;;;8.20;99.90;;;;;;4952280;28;20484;-83
2023/12/21 00:49:29;;;;;;;1.48;0.93;;;8.20;99.90;;;;;;4968381;28;20026;-84
2023/12/21 00:51:54;;;;;;;2.75;1.00;;;8.20;99.90;;;;;;4953334;28;20027;-82
2023/12/21 00:54:20;;;;;;;4.03;1.25;;;8.20;99.90;;;;;;4970458;28;20030;-82
2023/12/21 00:56:45;;;;;;;5.07;1.40;;;8.20;99.90;;;;;;4970097;28;20030;-82
2023/12/21 00:59:11;;;;;;;5.32;1.10;;;8.20;99.90;;;;;;4970711;28;20039;-82
2023/12/21 01:01:36;;;;;;;6.13;1.13;;;8.10;99.90;;;;;;4956188;28;20026;-83
2023/12/21 01:04:02;;;;;;;1.88;0.95;;;8.10;99.90;;;;;;4955685;28;20404;-82
2023/12/21 01:06:28;;;;;;;1.52;0.82;;;8.10;99.90;;;;;;4950037;29;20045;-85
2023/12/21 01:08:53;;;;;;;3.13;1.42;;;8.10;99.90;;;;;;4948829;28;20034;-82
2023/12/21 01:11:19;;;;;;;2.30;1.58;;;8.10;99.90;;;;;;4966658;28;20407;-82
2023/12/21 01:13:44;;;;;;;10.23;1.42;;;8.10;99.90;;;;;;4969935;28;20513;-82
2023/12/21 01:16:10;;;;;;;3.55;1.20;;;8.10;99.90;;;;;;4952999;28;20506;-82
2023/12/21 01:18:35;;;;;;;1.52;1.05;;;8.10;99.90;;;;;;4970094;28;20059;-83
2023/12/21 01:21:01;;;;;;;2.17;1.23;;;8.10;99.90;;;;;;4952393;28;20018;-82
2023/12/21 01:23:26;;;;;;;1.20;0.88;;;8.10;99.90;;;;;;4968996;28;20023;-83
2023/12/21 01:25:52;;;;;;;5.10;1.27;;;8.10;99.90;;;;;;4966047;28;20469;-82
2023/12/21 01:28:17;;;;;;;5.50;1.10;;;8.10;99.90;;;;;;4970142;28;20061;-84
2023/12/21 01:30:43;;;;;;;5.88;1.20;;;8.10;99.90;;;;;;4970088;28;20130;-83
2023/12/21 01:33:09;;;;;;;3.00;1.02;;;8.10;99.90;;;;;;4952376;28;20543;-84
2023/12/21 01:35:34;;;;;;;2.40;1.20;;;8.10;99.90;;;;;;4968522;28;20023;-82
2023/12/21 01:38:00;;;;;;;4.13;1.27;;;8.10;99.90;;;;;;4969763;28;20023;-83
2023/12/21 01:40:25;;;;;;;1.65;0.98;;;8.20;99.90;;;;;;4952499;28;20026;-83
2023/12/21 01:42:51;;;;;;;4.50;1.00;;;8.20;99.90;;;;;;4967762;28;20031;-82
2023/12/21 01:45:18;;;;;;;1.30;1.20;;;8.10;99.90;;;;;;4952842;28;20410;-82
2023/12/21 01:47:46;;;;;;;11.43;1.30;;;8.10;99.90;;;;;;4970146;28;20615;-83
2023/12/21 01:50:12;;;;;;;5.38;1.25;;;8.10;99.90;;;;;;4969674;28;20035;-82
2023/12/21 01:52:39;;;;;;;1.98;1.52;;;8.10;99.90;;;;;;4956287;28;20688;-82
2023/12/21 01:55:07;;;;;;;3.90;1.00;;;8.10;99.90;;;;;;4968390;28;20035;-83
2023/12/21 01:57:32;;;;;;;3.08;1.65;;;8.10;99.90;;;;;;4968417;28;20027;-82
2023/12/21 01:59:58;;;;;;;2.05;1.08;;;8.20;99.90;;;;;;4954208;28;20105;-84
2023/12/21 02:02:23;;;;;;;2.05;1.10;;;8.10;99.90;;;;;;4973017;28;20019;-83
2023/12/21 02:04:51;;;;;;;2.05;1.05;;;8.10;99.90;;;;;;4972817;28;20104;-82
2023/12/21 02:07:17;;;;;;;2.92;1.20;;;8.10;99.90;;;;;;4973227;28;20548;-82
2023/12/21 02:09:43;;;;;;;6.38;1.00;;;8.10;99.90;;;;;;4973402;28;20033;-82
2023/12/21 02:12:08;;;;;;;2.08;1.00;;;8.10;99.90;;;;;;4973144;28;20105;-83
2023/12/21 02:14:34;;;;;;;2.53;1.20;;;8.10;99.90;;;;;;4972655;28;20118;-82
2023/12/21 02:17:08;;;;;;;2.67;1.02;;;8.10;99.90;;;;;;4973218;28;20031;-83
2023/12/21 02:19:34;;;;;;;1.65;1.00;;;8.20;99.90;;;;;;4973133;28;20542;-83
2023/12/21 02:22:01;;;;;;;1.83;1.15;;;8.10;99.90;;;;;;4955271;28;20101;-82
2023/12/21 02:24:27;;;;;;;1.77;1.23;;;8.10;99.90;;;;;;4973021;28;20030;-83
2023/12/21 02:26:53;;;;;;;3.50;1.10;;;8.10;99.90;;;;;;4955986;28;20023;-83
2023/12/21 02:29:18;;;;;;;1.23;0.95;;;8.10;99.90;;;;;;4971968;28;20033;-83
2023/12/21 02:31:44;;;;;;;3.75;1.00;;;8.10;99.90;;;;;;4972706;28;20034;-82
2023/12/21 02:34:09;;;;;;;2.03;1.23;;;8.10;99.90;;;;;;4955811;28;20053;-83
2023/12/21 02:36:35;;;;;;;1.58;1.00;;;8.10;99.90;;;;;;4956318;28;20065;-83
2023/12/21 02:39:01;;;;;;;3.25;1.13;;;8.10;99.90;;;;;;4972711;28;20029;-82
2023/12/21 02:41:26;;;;;;;1.23;1.00;;;8.10;99.90;;;;;;4972215;28;20022;-83
2023/12/21 02:43:52;;;;;;;2.03;1.48;;;8.10;99.90;;;;;;4972544;28;20022;-82
2023/12/21 02:46:26;;;;;;;1.30;1.20;;;8.10;99.90;;;;;;4972694;28;20027;-83
2023/12/21 02:48:52;;;;;;;2.80;1.10;;;8.10;99.90;;;;;;4971698;28;20398;-84
2023/12/21 02:51:18;;;;;;;2.75;1.50;;;8.10;99.90;;;;;;4972159;28;20567;-83
2023/12/21 02:53:43;;;;;;;1.98;1.30;;;8.10;99.90;;;;;;4956493;28;20142;-82
2023/12/21 02:56:09;;;;;;;2.78;1.02;;;8.00;99.90;;;;;;4975827;28;20027;-83
2023/12/21 02:58:35;;;;;;;1.38;1.27;;;8.10;99.90;;;;;;4972190;28;20033;-82
2023/12/21 03:01:01;;;;;;;4.07;1.23;;;8.10;99.90;;;;;;4972278;28;20034;-83
2023/12/21 03:03:27;;;;;;;1.50;1.00;;;8.10;99.90;;;;;;4951980;28;20397;-82
2023/12/21 03:05:52;;;;;;;1.08;1.00;;;8.10;99.90;;;;;;4971841;28;20027;-82
2023/12/21 03:08:18;;;;;;;1.52;1.20;;;8.10;99.90;;;;;;4955177;28;20029;-83
2023/12/21 03:10:43;;;;;;;0.90;0.90;;;8.10;99.90;;;;;;4971415;28;20489;-83
2023/12/21 03:13:09;;;;;;;3.42;1.10;;;8.10;99.90;;;;;;4954632;28;20062;-81
2023/12/21 03:15:35;;;;;;;1.35;1.00;;;8.00;99.90;;;;;;4968526;28;20081;-83
2023/12/21 03:18:00;;;;;;;1.45;1.10;;;8.10;99.90;;;;;;4971483;28;20177;-83
2023/12/21 03:20:26;;;;;;;3.00;1.50;;;8.10;99.90;;;;;;4957594;28;20019;-82
2023/12/21 03:22:51;;;;;;;2.35;0.93;;;8.10;99.90;;;;;;4951755;28;20015;-82
2023/12/21 03:25:17;;;;;;;1.50;0.90;;;8.10;99.90;;;;;;4970292;28;20129;-82
2023/12/21 03:27:42;;;;;;;1.45;0.95;;;8.10;99.90;;;;;;4972156;28;20054;-84
2023/12/21 03:30:09;;;;;;;1.50;0.90;;;8.10;99.90;;;;;;4971011;28;20034;-82
2023/12/21 03:32:36;;;;;;;1.65;1.20;;;8.10;99.90;;;;;;4971420;28;20114;-84
2023/12/21 03:35:03;;;;;;;1.20;1.02;;;8.10;99.90;;;;;;4971550;28;20025;-82
2023/12/21 03:37:29;;;;;;;1.30;1.13;;;8.10;99.90;;;;;;4965032;28;20023;-83
2023/12/21 03:39:55;;;;;;;1.25;1.08;;;8.10;99.90;;;;;;4971705;28;20019;-83
2023/12/21 03:42:21;;;;;;;4.00;1.10;;;8.10;99.90;;;;;;4971269;28;20038;-83
2023/12/21 03:44:47;;;;;;;2.88;1.10;;;8.10;99.90;;;;;;4953414;28;20023;-82
2023/12/21 03:47:13;;;;;;;4.55;1.10;;;8.00;99.90;;;;;;4971555;28;20177;-83
2023/12/21 03:49:39;;;;;;;2.35;1.05;;;8.10;99.90;;;;;;4971454;28;20019;-83
2023/12/21 03:52:05;;;;;;;2.60;1.35;;;8.00;99.90;;;;;;4967445;28;20039;-82
2023/12/21 03:54:31;;;;;;;2.75;1.10;;;8.10;99.90;;;;;;4970539;28;20702;-82
2023/12/21 03:56:56;;;;;;;1.63;1.30;;;8.10;99.90;;;;;;4954310;28;20400;-82
2023/12/21 03:59:22;;;;;;;1.50;1.10;;;8.10;99.90;;;;;;4953929;28;20027;-82
2023/12/21 04:01:48;;;;;;;1.33;1.08;;;8.10;99.90;;;;;;4971096;28;20077;-83
2023/12/21 04:04:13;;;;;;;3.22;1.10;;;8.10;99.90;;;;;;4974132;28;20569;-82
2023/12/21 04:06:39;;;;;;;2.28;1.23;;;8.10;99.90;;;;;;4966861;28;20081;-84
2023/12/21 04:09:05;;;;;;;1.17;1.00;;;8.10;99.90;;;;;;4970931;28;20081;-82
2023/12/21 04:11:31;;;;;;;1.20;1.10;;;8.00;99.90;;;;;;4970913;28;20019;-82
2023/12/21 04:13:57;;;;;;;1.65;1.30;;;8.10;99.90;;;;;;4969636;28;20094;-82
2023/12/21 04:16:22;;;;;;;1.13;1.02;;;8.10;99.90;;;;;;4953441;28;20035;-82
2023/12/21 04:18:48;;;;;;;2.80;1.10;;;8.10;99.90;;;;;;4971035;28;20098;-83
2023/12/21 04:21:13;;;;;;;2.03;1.35;;;8.10;99.90;;;;;;4969678;28;20033;-83
2023/12/21 04:23:39;;;;;;;1.40;1.08;;;8.10;99.90;;;;;;4954427;28;20085;-81
2023/12/21 04:26:04;;;;;;;5.55;1.13;;;8.00;99.90;;;;;;4953533;28;20025;-82
2023/12/21 04:28:30;;;;;;;2.97;1.17;;;8.10;99.90;;;;;;4954352;28;20031;-82
2023/12/21 04:30:55;;;;;;;3.05;1.98;;;8.10;99.90;;;;;;4956401;28;20015;-82
2023/12/21 04:33:21;;;;;;;4.45;1.38;;;8.00;99.90;;;;;;4969339;28;20489;-83
2023/12/21 04:35:47;;;;;;;4.28;0.95;;;8.10;99.90;;;;;;4952286;28;20441;-83
2023/12/21 04:38:13;;;;;;;3.83;1.23;;;8.10;99.90;;;;;;4968000;28;20492;-82
2023/12/21 04:40:39;;;;;;;6.35;1.17;;;8.00;99.90;;;;;;4970066;28;20026;-83
2023/12/21 04:43:06;;;;;;;1.92;1.20;;;8.10;99.90;;;;;;4969054;28;20015;-83
2023/12/21 04:45:32;;;;;;;1.27;1.17;;;8.10;99.90;;;;;;4950190;28;20023;-82
2023/12/21 04:47:57;;;;;;;3.17;1.38;;;8.10;99.90;;;;;;4970414;28;20508;-82
2023/12/21 04:50:23;;;;;;;1.33;1.00;;;8.00;99.90;;;;;;4970178;28;20061;-83
2023/12/21 04:52:49;;;;;;;1.42;1.30;;;8.10;99.90;;;;;;4953112;28;20165;-83
2023/12/21 04:55:15;;;;;;;2.20;1.13;;;8.10;99.90;;;;;;4969569;28;20027;-83
2023/12/21 04:57:40;;;;;;;1.23;1.13;;;8.10;99.90;;;;;;4951406;28;20018;-83
2023/12/21 05:00:07;;;;;;;1.52;1.00;;;8.00;99.90;;;;;;4970370;28;20010;-83
2023/12/21 05:02:33;;;;;;;2.35;1.33;;;8.00;99.90;;;;;;4969646;28;20019;-82
2023/12/21 05:04:59;;;;;;;0.93;0.90;;;8.00;99.90;;;;;;4970256;28;20081;-82
2023/12/21 05:07:25;;;;;;;1.42;1.00;;;8.10;99.90;;;;;;4970194;28;20027;-82
2023/12/21 05:09:50;;;;;;;2.67;0.82;;;8.00;99.90;;;;;;4969205;28;20027;-82
2023/12/21 05:12:16;;;;;;;1.15;0.88;;;8.00;99.90;;;;;;4969864;28;20073;-82
2023/12/21 05:14:41;;;;;;;0.95;0.90;;;8.00;99.90;;;;;;4970570;28;20058;-82
2023/12/21 05:17:07;;;;;;;0.93;0.90;;;8.00;99.90;;;;;;4953082;28;20029;-83
2023/12/21 05:19:33;;;;;;;1.25;1.00;;;8.00;99.90;;;;;;4968196;28;20460;-82
2023/12/21 05:21:58;;;;;;;1.13;1.00;;;8.00;99.90;;;;;;4952658;28;20058;-83
2023/12/21 05:24:24;;;;;;;1.70;1.13;;;8.00;99.90;;;;;;4968004;28;20106;-83
2023/12/21 05:26:50;;;;;;;2.05;0.90;;;8.00;99.90;;;;;;4969896;28;20053;-82
2023/12/21 05:29:15;;;;;;;0.80;0.80;;;8.00;99.90;;;;;;4953510;28;20034;-81
2023/12/21 05:31:42;;;;;;;0.82;0.80;;;8.00;99.90;;;;;;4969865;28;20026;-83
2023/12/21 05:34:07;;;;;;;0.95;0.95;;;8.00;99.90;;;;;;4973602;28;20055;-84
2023/12/21 05:36:33;;;;;;;0.82;0.80;;;8.00;99.90;;;;;;4973741;28;20055;-82
2023/12/21 05:39:00;;;;;;;3.63;1.02;;;8.00;99.90;;;;;;4954591;28;20038;-83
2023/12/21 05:41:25;;;;;;;0.85;0.80;;;8.00;99.90;;;;;;4955923;28;20054;-82
2023/12/21 05:43:51;;;;;;;1.27;0.90;;;8.00;99.90;;;;;;4956374;28;20480;-83
2023/12/21 05:46:17;;;;;;;2.13;0.88;;;8.00;99.90;;;;;;4974719;28;20023;-83
2023/12/21 05:48:42;;;;;;;0.70;0.70;;;8.00;99.90;;;;;;4973868;28;20034;-82
2023/12/21 05:51:08;;;;;;;0.75;0.75;;;8.00;99.90;;;;;;4971140;28;20038;-83
2023/12/21 05:53:33;;;;;;;1.52;1.10;;;8.00;99.90;;;;;;4970901;28;20034;-82
2023/12/21 05:55:59;;;;;;;1.10;1.00;;;8.00;99.90;;;;;;4973726;28;20027;-83
2023/12/21 05:58:25;;;;;;;1.77;1.05;;;8.00;99.90;;;;;;4971603;28;20050;-82
2023/12/21 06:00:50;;;;;;;0.90;0.80;;;8.00;99.90;;;;;;4954940;28;20110;-83
2023/12/21 06:03:16;;;;;;;2.10;0.80;;;8.00;99.90;;;;;;4971449;28;20023;-82
2023/12/21 06:05:41;;;;;;;0.82;0.80;;;8.00;99.90;;;;;;4956101;28;20031;-82
2023/12/21 06:08:07;;;;;;;3.63;0.60;;;8.00;99.90;;;;;;4973734;28;20019;-82
2023/12/21 06:10:33;;;;;;;1.02;0.68;;;8.00;99.90;;;;;;4972271;28;20043;-82
2023/12/21 06:12:59;;;;;;;3.40;0.95;;;8.00;99.90;;;;;;4970198;28;20491;-83
2023/12/21 06:15:25;;;;;;;4.72;1.27;;;8.00;99.90;;;;;;4957796;28;20062;-83
2023/12/21 06:17:51;;;;;;;1.20;0.82;;;8.00;99.90;;;;;;4955863;28;20062;-82
2023/12/21 06:20:17;;;;;;;1.52;1.20;;;8.00;99.90;;;;;;4969938;28;20026;-82
2023/12/21 06:22:42;;;;;;;0.98;0.95;;;8.50;99.90;;;;;;4955885;28;20026;-82
2023/12/21 06:25:08;;;;;;;1.08;0.98;;;8.30;99.90;;;;;;4972586;28;20027;-85
2023/12/21 06:27:33;;;;;;;2.25;1.23;;;8.20;99.90;;;;;;4972801;28;20513;-85
2023/12/21 06:29:59;;;;;;;3.63;1.42;;;8.10;99.90;;;;;;4968934;28;20029;-85
2023/12/21 06:32:25;;;;;;;1.90;1.10;;;8.10;99.90;;;;;;4972762;28;20031;-85
2023/12/21 06:34:50;;;;;;;1.13;0.95;;;8.10;99.90;;;;;;4955662;28;20026;-85
2023/12/21 06:37:16;;;;;;;1.95;1.17;;;8.00;99.90;;;;;;4951895;28;20042;-86
2023/12/21 06:39:42;;;;;;;0.95;0.93;;;8.10;99.90;;;;;;4970750;28;20031;-85
2023/12/21 06:42:07;;;;;;;4.45;1.52;;;8.00;99.90;;;;;;4955140;28;20026;-85
2023/12/21 06:44:33;;;;;;;3.70;1.20;;;8.00;99.90;;;;;;4954940;28;20481;-84
2023/12/21 06:46:58;;;;;;;4.60;1.45;;;8.10;99.90;;;;;;4971835;28;20034;-86
2023/12/21 06:49:24;;;;;;;1.77;1.30;;;8.00;99.90;;;;;;4952960;28;20069;-86
2023/12/21 06:51:49;;;;;;;1.88;1.23;;;8.00;99.90;;;;;;4972156;28;20436;-87
2023/12/21 06:54:15;;;;;;;1.95;1.55;;;8.00;99.90;;;;;;4972492;28;20038;-84
2023/12/21 06:56:40;;;;;;;1.80;1.40;;;8.00;99.90;;;;;;4972501;28;20035;-85
2023/12/21 06:59:06;;;;;;;1.75;1.40;;;8.00;99.90;;;;;;4971940;28;20023;-84
2023/12/21 07:01:32;;;;;;;1.88;1.70;;;8.00;99.90;;;;;;4965144;28;20023;-84
2023/12/21 07:03:58;;;;;;;3.60;1.67;;;8.00;99.90;;;;;;4972302;28;20038;-85
2023/12/21 07:06:27;;;;;;;2.35;1.58;;;8.00;99.90;;;;;;4972223;28;20019;-85
2023/12/21 07:08:53;;;;;;;1.30;1.20;;;8.00;99.90;;;;;;4953029;28;20082;-84
2023/12/21 07:11:19;;;;;;;3.80;1.80;;;8.00;99.90;;;;;;4967843;28;20039;-86
2023/12/21 07:13:45;;;;;;;1.38;1.20;;;8.00;99.90;;;;;;4956960;28;20023;-84
2023/12/21 07:16:11;;;;;;;4.05;1.60;;;8.00;99.90;;;;;;4970277;28;20027;-85
2023/12/21 07:18:37;;;;;;;4.72;1.70;;;8.00;99.90;;;;;;4970635;28;20505;-85
2023/12/21 07:21:03;;;;;;;2.05;1.42;;;8.00;99.90;;;;;;4971622;28;20027;-85
2023/12/21 07:23:29;;;;;;;1.48;1.23;;;8.00;99.90;;;;;;4953002;28;20026;-83
2023/12/21 07:25:55;;;;;;;2.28;1.45;;;8.00;99.90;;;;;;4953214;28;20034;-86
2023/12/21 07:28:20;;;;;;;1.52;1.42;;;8.00;99.90;;;;;;4969389;28;20031;-85
2023/12/21 07:30:46;;;;;;;2.30;1.40;;;8.00;99.90;;;;;;4971324;28;20092;-86
2023/12/21 07:33:11;;;;;;;1.88;1.40;;;8.00;99.90;;;;;;4971453;28;20118;-85
2023/12/21 07:35:38;;;;;;;1.50;1.15;;;8.00;99.90;;;;;;4971074;28;20062;-86
2023/12/21 07:38:04;;;;;;;5.45;1.48;;;8.00;99.90;;;;;;4955192;28;20098;-86
2023/12/21 07:40:30;;;;;;;2.33;1.10;;;8.00;99.90;;;;;;4966338;28;20287;-85
2023/12/21 07:42:55;;;;;;;3.47;1.25;;;8.00;99.90;;;;;;4971851;28;20015;-84
2023/12/21 07:45:21;;;;;;;3.50;1.58;;;8.00;99.90;;;;;;4971600;28;20035;-85
2023/12/21 07:47:46;;;;;;;1.35;1.25;;;8.10;99.90;;;;;;4970879;28;20065;-84
2023/12/21 07:50:12;;;;;;;2.28;1.52;;;8.10;99.90;;;;;;4956351;28;20035;-86
2023/12/21 07:52:37;;;;;;;2.10;1.35;;;8.00;99.90;;;;;;4967716;28;20031;-88
2023/12/21 07:55:04;;;;;;;2.35;1.40;;;8.00;99.90;;;;;;4953541;28;20026;-85
2023/12/21 07:57:30;;;;;;;3.67;1.27;;;8.00;99.90;;;;;;4950480;28;20037;-84
2023/12/21 07:59:56;;;;;;;2.10;1.33;;;8.00;99.90;;;;;;4970919;28;20015;-86
2023/12/21 08:02:21;;;;;;;1.55;1.00;;;8.00;99.90;;;;;;4952428;28;20027;-85
2023/12/21 08:04:47;;;;;;;2.47;1.10;;;8.10;99.90;;;;;;4953479;28;20066;-84
2023/12/21 08:07:13;;;;;;;1.23;1.13;;;8.00;99.90;;;;;;4969187;28;20031;-85
2023/12/21 08:09:38;;;;;;;1.17;1.08;;;8.00;99.90;;;;;;4971299;28;20023;-85
2023/12/21 08:12:04;;;;;;;2.40;0.98;;;8.00;99.90;;;;;;4953570;28;20046;-87
2023/12/21 08:14:31;;;;;;;2.45;0.95;;;8.00;99.90;;;;;;4954459;28;20085;-85
2023/12/21 08:16:59;;;;;;;0.82;0.82;;;8.00;99.90;;;;;;4951609;28;20026;-84
2023/12/21 08:19:25;;;;;;;1.30;1.02;;;8.10;99.90;;;;;;4968748;28;20045;-85
2023/12/21 08:21:50;;;;;;;2.05;1.10;;;8.10;99.90;;;;;;4970646;28;20972;-85
2023/12/21 08:24:16;;;;;;;1.60;1.02;;;8.10;99.90;;;;;;4970854;28;20031;-84
2023/12/21 08:26:42;;;;;;;1.27;0.90;;;8.00;99.90;;;;;;4971702;28;20026;-85
2023/12/21 08:29:07;;;;;;;0.82;0.80;;;8.10;99.90;;;;;;4968402;28;20019;-85
2023/12/21 08:31:33;;;;;;;2.65;0.80;;;8.10;99.90;;;;;;4966763;28;20062;-84
2023/12/21 08:33:59;;;;;;;1.98;1.27;;;8.10;99.90;;;;;;4970049;28;20030;-86
2023/12/21 08:36:24;;;;;;;1.63;0.90;;;8.10;99.90;;;;;;4970743;28;20065;-87
2023/12/21 08:38:50;;;;;;;3.05;1.00;;;8.00;99.90;;;;;;4968783;28;20475;-84
2023/12/21 08:41:16;;;;;;;0.60;0.60;;;8.10;99.90;;;;;;4970109;28;20553;-85
2023/12/21 08:43:42;;;;;;;0.70;0.70;;;8.10;99.90;;;;;;4970032;28;20022;-85
2023/12/21 08:46:07;;;;;;;1.05;0.80;;;8.10;99.90;;;;;;4953674;28;20718;-84
2023/12/21 08:48:34;;;;;;;0.93;0.70;;;8.10;99.90;;;;;;4969135;28;20488;-85
2023/12/21 08:50:59;;;;;;;4.68;0.88;;;8.10;99.90;;;;;;4951290;28;20065;-85
2023/12/21 08:53:25;;;;;;;1.35;0.80;;;8.10;99.90;;;;;;4967099;28;20054;-84
2023/12/21 08:55:50;;;;;;;0.98;0.82;;;8.10;99.90;;;;;;4951862;28;20026;-85
2023/12/21 08:58:16;;;;;;;1.73;0.73;;;8.10;99.90;;;;;;4967705;28;20038;-86
2023/12/21 09:00:41;;;;;;;2.42;1.00;;;8.10;99.90;;;;;;4951159;28;20037;-85
2023/12/21 09:03:08;;;;;;;1.67;0.93;;;8.10;99.90;;;;;;4952085;28;20050;-85
2023/12/21 09:05:34;;;;;;;1.10;0.82;;;8.10;99.90;;;;;;4967317;28;20657;-85
2023/12/21 09:08:00;;;;;;;0.90;0.90;;;8.10;99.90;;;;;;4947751;28;20029;-85
2023/12/21 09:10:25;;;;;;;1.25;0.80;;;8.10;99.90;;;;;;4971637;28;20026;-87
2023/12/21 09:12:51;;;;;;;1.65;0.88;;;8.10;99.90;;;;;;4972839;28;20038;-85
2023/12/21 09:15:16;;;;;;;0.80;0.80;;;8.10;99.90;;;;;;4955783;28;20535;-84
2023/12/21 09:17:42;;;;;;;0.60;0.60;;;8.10;99.90;;;;;;4970826;28;20031;-87
2023/12/21 09:20:08;;;;;;;0.70;0.70;;;8.10;99.90;;;;;;4968894;28;20026;-84
2023/12/21 09:22:34;;;;;;;0.50;0.50;;;8.10;99.90;;;;;;4952748;28;20577;-86
2023/12/21 09:25:01;;;;;;;6.35;0.70;;;8.10;99.90;;;;;;4974162;28;20026;-84
2023/12/21 09:27:28;;;;;;;0.63;0.57;;;9.00;99.90;;;;;;4972200;28;20023;-85
2023/12/21 09:29:54;;;;;;;0.50;0.50;;;8.80;99.90;;;;;;4971886;28;20488;-84
2023/12/21 09:32:20;;;;;;;3.90;0.98;;;8.40;99.90;;;;;;4972267;28;20031;-85
2023/12/21 09:34:49;;;;;;;0.85;0.68;;;8.30;99.90;;;;;;4954373;28;20031;-84
2023/12/21 09:37:15;;;;;;;6.75;0.80;;;8.20;99.90;;;;;;4972149;28;20110;-86
2023/12/21 09:39:40;;;;;;;0.57;0.40;;;8.70;99.90;;;;;;4971197;28;20466;-86
2023/12/21 09:42:06;;;;;;;0.50;0.50;;;8.50;99.90;;;;;;4961710;28;20023;-86
2023/12/21 09:44:34;;;;;;;0.60;0.60;;;8.30;99.90;;;;;;4972535;28;20559;-85
2023/12/21 09:47:04;;;;;;;3.28;0.60;;;8.20;99.90;;;;;;4971731;28;20069;-84
2023/12/21 09:49:36;;;;;;;0.50;0.50;;;8.10;99.90;;;;;;4954282;28;20085;-84
2023/12/21 09:52:07;;;;;;;1.73;0.60;;;8.10;99.90;;;;;;4955326;28;20042;-87
2023/12/21 09:54:34;;;;;;;0.60;0.55;;;8.50;99.90;;;;;;4972579;28;20567;-85
2023/12/21 09:57:02;;;;;;;4.05;0.60;;;8.60;99.90;;;;;;4954935;28;20057;-87
2023/12/21 09:59:30;;;;;;;0.75;0.57;;;8.30;99.90;;;;;;4970956;28;20030;-88
2023/12/21 10:01:56;;;;;;;0.50;0.50;;;8.20;99.90;;;;;;4972773;28;20019;-87
2023/12/21 10:04:21;;;;;;;0.50;0.50;;;8.10;99.90;;;;;;4972361;28;20053;-87
2023/12/21 10:06:47;;;;;;;0.60;0.60;;;8.10;99.90;;;;;;4971737;28;20022;-85
2023/12/21 10:09:15;;;;;;;0.40;0.40;;;8.10;99.90;;;;;;4951302;28;20035;-86
2023/12/21 10:11:41;;;;;;;1.17;0.63;;;8.10;99.90;;;;;;4956257;28;20041;-86
2023/12/21 10:14:19;;;;;;;1.60;0.65;;;8.10;99.90;;;;;;4972546;28;20094;-86
2023/12/21 10:16:45;;;;;;;1.55;0.98;;;8.10;99.90;;;;;;4971683;28;20023;-86
2023/12/21 10:19:15;;;;;;;1.17;0.95;;;8.10;99.90;;;;;;4955179;28;20033;-87
2023/12/21 10:21:40;;;;;;;;;;;8.10;99.90;;;;;;4955218;28;20400;-87
2023/12/21 10:24:07;;;;;;;0.80;0.60;;;8.10;99.90;;;;;;4972786;28;19914;-85
2023/12/21 10:26:42;;;;;;;0.60;0.60;;;8.10;99.90;;;;;;4971887;28;20047;-86
2023/12/21 10:29:07;;;;;;;0.60;0.60;;;8.10;99.90;;;;;;4981391;28;20033;-87
2023/12/21 10:31:33;;;;;;;0.63;0.60;;;8.10;99.90;;;;;;4954504;28;20122;-86
2023/12/21 10:33:58;;;;;;;0.68;0.68;;;8.00;99.90;;;;;;4954691;28;20039;-86
2023/12/21 10:36:26;;;;;;;0.70;0.70;;;8.30;99.90;;;;;;4956143;28;20019;-85
2023/12/21 10:38:52;;;;;;;0.75;0.60;;;8.20;99.90;;;;;;4970299;28;20106;-86
2023/12/21 10:41:18;;;;;;;1.23;0.70;;;8.10;99.90;;;;;;4969669;28;20115;-86
2023/12/21 10:43:45;;;;;;;0.88;0.80;;;8.10;99.90;;;;;;4970272;28;20030;-88
2023/12/21 10:46:10;;;;;;;0.82;0.60;;;8.10;99.90;;;;;;4969136;28;20023;-86
2023/12/21 10:48:38;;;;;;;0.70;0.70;;;8.10;99.90;;;;;;4970204;28;20729;-87
2023/12/21 10:51:04;;;;;;;1.02;0.98;;;8.00;99.90;;;;;;4952443;28;20051;-83
2023/12/21 10:53:30;;;;;;;1.23;0.98;;;8.00;99.90;;;;;;4952561;28;20023;-86
2023/12/21 10:55:58;;;;;;;0.80;0.60;;;8.10;99.90;;;;;;4952040;28;20030;-86
2023/12/21 10:58:26;;;;;;;0.82;0.60;;;8.10;99.90;;;;;;4953104;28;20515;-87
2023/12/21 11:00:55;;;;;;;0.63;0.60;;;8.10;99.90;;;;;;4950476;28;20038;-84
2023/12/21 11:03:21;;;;;;;0.63;0.60;;;8.10;99.90;;;;;;4952604;28;20137;-84
2023/12/21 11:05:47;;;;;;;0.50;0.50;;;8.10;99.90;;;;;;4969526;28;20086;-86
2023/12/21 11:08:13;;;;;;;1.90;0.77;;;8.10;99.90;;;;;;4970561;28;20077;-86
2023/12/21 11:10:38;;;;;;;0.60;0.60;;;8.10;99.90;;;;;;4969828;28;20031;-85
2023/12/21 11:13:04;;;;;;;0.95;0.63;;;8.10;99.90;;;;;;4969190;28;20050;-88
2023/12/21 11:15:30;;;;;;;1.10;0.65;;;8.10;99.90;;;;;;4970298;28;20038;-86
2023/12/21 11:18:11;;;;;;;0.80;0.80;;;8.10;99.90;;;;;;4969802;28;20030;-85
2023/12/21 11:20:47;;;;;;;0.80;0.80;;;8.10;99.90;;;;;;4967646;28;20019;-84
2023/12/21 11:23:12;;;;;;;0.60;0.60;;;8.10;99.90;;;;;;4949432;28;20379;-85
2023/12/21 11:25:38;;;;;;;0.68;0.65;;;8.10;99.90;;;;;;4951137;28;20061;-89
2023/12/21 11:28:04;;;;;;;0.60;0.60;;;8.10;99.90;;;;;;4971333;28;20023;-85
2023/12/21 11:30:32;;;;;;;1.05;0.75;;;8.10;99.90;;;;;;4954755;28;20054;-90
2023/12/21 11:33:09;;;;;;;2.63;0.70;;;8.80;99.90;;;;;;4970091;28;20105;-87
2023/12/21 11:35:35;;;;;;;0.60;0.60;;;8.40;99.90;;;;;;4952372;28;20121;-87
2023/12/21 11:38:05;;;;;;;0.98;0.70;;;8.30;99.90;;;;;;4951174;28;20027;-87
2023/12/21 11:40:32;;;;;;;0.70;0.70;;;8.20;99.90;;;;;;4971542;28;20109;-88
2023/12/21 11:42:59;;;;;;;0.70;0.70;;;8.20;99.90;;;;;;4966712;28;20027;-86
2023/12/21 11:45:29;;;;;;;0.93;0.77;;;8.10;99.90;;;;;;4962570;28;20023;-86
2023/12/21 11:48:04;;;;;;;1.27;0.60;;;8.10;99.90;;;;;;4971160;28;20034;-89
2023/12/21 11:50:33;;;;;;;0.60;0.60;;;8.10;99.90;;;;;;4968167;28;20061;-86
2023/12/21 11:53:09;;;;;;;0.60;0.60;;;8.10;99.90;;;;;;4969430;28;20023;-89
2023/12/21 11:55:40;;;;;;;0.60;0.60;;;8.10;99.90;;;;;;4971549;28;20030;-88
2023/12/21 11:58:07;;;;;;;0.50;0.50;;;8.10;99.90;;;;;;4954442;28;20519;-88
2023/12/21 12:00:33;;;;;;;0.70;0.65;;;8.10;99.90;;;;;;4970192;28;20380;-86
2023/12/21 12:02:59;;;;;;;0.60;0.60;;;8.10;99.90;;;;;;4967503;28;20027;-88
2023/12/21 12:05:28;;;;;;;0.60;0.60;;;8.10;99.90;;;;;;4952727;28;20023;-86
2023/12/21 12:07:54;;;;;;;0.55;0.55;;;8.10;99.90;;;;;;4976673;28;20033;-88
2023/12/21 12:10:22;;;;;;;0.60;0.60;;;8.10;99.90;;;;;;4967353;28;20031;-86
2023/12/21 12:12:48;;;;;;;0.90;0.60;;;8.10;99.90;;;;;;4949983;28;20109;-87
2023/12/21 12:15:14;;;;;;;1.27;0.75;;;8.10;99.90;;;;;;4956720;28;20026;-87
2023/12/21 12:17:43;;;;;;;0.63;0.63;;;8.10;99.90;;;;;;4969870;28;20556;-86
2023/12/21 12:20:10;;;;;;;0.80;0.80;;;8.10;99.90;;;;;;4970852;28;20305;-86
2023/12/21 12:22:36;;;;;;;1.20;0.80;;;9.20;99.90;;;;;;4954862;28;20054;-88
2023/12/21 12:25:04;;;;;;;0.50;0.50;;;8.80;99.90;;;;;;4970910;28;20022;-89
2023/12/21 12:27:30;;;;;;;5.70;0.73;;;8.50;99.90;;;;;;4968118;28;20028;-87
2023/12/21 12:29:56;;;;;;;0.60;0.60;;;8.40;99.90;;;;;;4971198;28;20026;-88
2023/12/21 12:32:22;;;;;;;0.77;0.73;;;8.30;99.90;;;;;;4954176;28;20026;-88
2023/12/21 12:34:48;;;;;;;0.85;0.80;;;8.30;99.90;;;;;;4954541;28;20031;-89
2023/12/21 12:37:16;;;;;;;0.60;0.60;;;8.30;99.90;;;;;;4969040;28;20057;-88
2023/12/21 12:39:42;;;;;;;0.45;0.45;;;8.30;99.90;;;;;;4968963;28;20050;-86
2023/12/21 12:42:09;;;;;;;1.35;0.70;;;8.30;99.90;;;;;;4967540;28;20018;-87
2023/12/21 12:44:34;;;;;;;1.20;0.73;;;8.20;99.90;;;;;;4954843;28;20091;-90
2023/12/21 12:47:00;;;;;;;0.73;0.73;;;8.30;99.90;;;;;;4971579;28;20143;-86
2023/12/21 12:49:25;;;;;;;0.75;0.73;;;8.20;99.90;;;;;;4954235;28;20018;-89
2023/12/21 12:51:52;;;;;;;2.38;0.80;;;8.30;99.90;;;;;;4968213;28;20038;-87